.
WxDataArchive / Data Records for 2009-12-14
2009-12-13 December 2009 2009-12-15

Data Records for Monday, 14 December 2009

Time	Temp	Chill	HIndex	Humid	Dewpt	 Wind 	HiWind	WindDir	Rain 	Barom 
-----	----	-----	------	-----	-----	------	------	-------	-----	----- 
00:00	34.6	34.6	34.6	94	33.1	0	0	---	0.00	30.045 
00:05	34.6	34.6	34.6	94	33.1	0	0	---	0.00	30.045 
00:10	34.6	34.6	34.6	94	33.1	0	0	---	0.00	30.045 
00:15	34.6	34.6	34.6	94	33.1	0	1	248	0.00	30.056 
00:20	34.6	34.6	34.6	94	33.1	0	1	248	0.00	30.056 
00:25	34.6	34.6	34.6	95	33.3	0	1	248	0.00	30.056 
00:30	34.6	34.6	34.6	95	33.3	0	0	---	0.00	30.058 
00:35	34.6	34.6	34.6	95	33.3	0	0	---	0.00	30.058 
00:40	34.6	34.6	34.6	95	33.3	0	1	248	0.00	30.058 
00:45	34.6	34.6	34.6	95	33.3	0	0	---	0.00	30.048 
00:50	34.6	34.6	34.6	95	33.3	0	0	---	0.00	30.048 
00:55	34.6	34.6	34.6	95	33.3	0	0	---	0.00	30.048 
01:00	34.6	34.6	34.6	95	33.3	0	0	---	0.00	30.052 
01:05	34.6	34.6	34.6	95	33.3	0	0	---	0.00	30.052 
01:10	34.6	34.6	34.6	95	33.3	0	1	248	0.00	30.052 
01:15	34.4	34.4	34.4	95	33.1	0	1	248	0.00	30.050 
01:20	34.4	34.4	34.4	95	33.1	0	1	248	0.00	30.050 
01:25	34.4	34.4	34.4	95	33.1	0	0	---	0.00	30.050 
01:30	34.4	34.4	34.4	95	33.1	0	1	248	0.00	30.056 
01:35	34.3	34.3	34.3	95	33.0	0	1	248	0.00	30.056 
01:40	34.3	34.3	34.3	95	33.0	0	0	---	0.00	30.056 
01:45	34.3	34.3	34.3	95	33.0	0	0	---	0.00	30.059 
01:50	34.3	34.3	34.3	95	33.0	0	1	248	0.00	30.059 
01:55	34.3	34.3	34.3	95	33.0	0	1	248	0.00	30.059 
02:00	34.3	34.3	34.3	95	33.0	0	3	248	0.00	30.047 
02:05	34.1	34.1	34.1	95	32.8	0	2	248	0.00	30.047 
02:10	34.1	34.1	34.1	95	32.8	0	1	248	0.00	30.047 
02:15	34.1	34.1	34.1	95	32.8	0	1	248	0.00	30.038 
02:20	34.1	34.1	34.1	95	32.8	0	1	248	0.00	30.038 
02:25	34.1	34.1	34.1	95	32.8	0	1	248	0.00	30.038 
02:30	34.1	34.1	34.1	95	32.8	0	1	248	0.00	30.034 
02:35	34.1	34.1	34.1	95	32.8	0	0	---	0.00	30.034 
02:40	34.1	34.1	34.1	95	32.8	0	1	248	0.00	30.034 
02:45	34.1	34.1	34.1	94	32.6	0	1	248	0.00	30.032 
02:50	34.1	34.1	34.1	94	32.6	0	2	248	0.00	30.032 
02:55	34.1	34.1	34.1	94	32.6	0	2	248	0.00	30.032 
03:00	34.1	34.1	34.1	94	32.6	0	2	225	0.00	30.030 
03:05	34.3	34.3	34.3	93	32.5	0	2	225	0.00	30.030 
03:10	34.3	34.3	34.3	93	32.5	0	1	225	0.00	30.030 
03:15	34.3	34.3	34.3	93	32.5	0	2	225	0.00	30.023 
03:20	34.3	34.3	34.3	92	32.2	0	2	68	0.00	30.023 
03:25	34.4	34.4	34.4	92	32.3	0	2	90	0.00	30.023 
03:30	34.4	34.4	34.4	92	32.3	0	2	90	0.00	30.018 
03:35	34.4	34.4	34.4	92	32.3	1	3	135	0.00	30.018 
03:40	34.4	34.4	34.4	92	32.3	0	2	135	0.00	30.018 
03:45	34.4	34.4	34.4	91	32.0	1	3	112	0.00	30.011 
03:50	34.6	34.6	34.6	91	32.2	1	4	135	0.00	30.011 
03:55	34.6	34.6	34.6	91	32.2	1	3	135	0.00	30.011 
04:00	34.6	34.6	34.6	90	32.0	1	3	112	0.00	29.996 
04:05	34.6	34.6	34.6	90	32.0	1	3	112	0.00	29.996 
04:10	34.6	34.6	34.6	90	32.0	0	2	135	0.00	29.996 
04:15	34.6	34.6	34.6	90	32.0	0	3	135	0.00	29.985 
04:20	34.6	34.6	34.6	90	32.0	0	2	135	0.00	29.985 
04:25	34.7	34.7	34.7	90	32.1	0	1	135	0.00	29.985 
04:30	34.7	34.7	34.7	89	31.8	1	6	22	0.00	29.991 
04:35	34.7	34.7	34.7	89	31.8	1	6	68	0.00	29.991 
04:40	34.7	34.7	34.7	89	31.8	1	4	112	0.00	29.991 
04:45	34.7	34.7	34.7	88	31.5	1	3	112	0.00	29.975 
04:50	34.9	34.9	34.9	88	31.7	1	5	112	0.00	29.975 
04:55	34.9	34.9	34.9	88	31.7	1	4	112	0.00	29.975 
05:00	34.9	34.9	34.9	88	31.7	0	2	112	0.00	29.975 
05:05	34.9	34.9	34.9	88	31.7	1	3	112	0.00	29.975 
05:10	34.9	34.9	34.9	88	31.7	1	3	135	0.00	29.975 
05:15	34.9	34.9	34.9	88	31.7	1	3	135	0.00	29.967 
05:20	34.9	34.9	34.9	88	31.7	0	3	68	0.00	29.967 
05:25	34.9	34.9	34.9	88	31.7	0	2	135	0.00	29.967 
05:30	34.9	34.9	34.9	88	31.7	0	2	135	0.00	29.957 
05:35	35.0	35.0	35.0	88	31.8	0	2	112	0.00	29.957 
05:40	35.0	35.0	35.0	88	31.8	1	3	112	0.00	29.957 
05:45	35.0	35.0	35.0	88	31.8	1	3	112	0.00	29.949 
05:50	35.0	35.0	35.0	89	32.1	1	2	112	0.00	29.949 
05:55	35.0	35.0	35.0	89	32.1	0	2	135	0.00	29.949 
06:00	35.0	35.0	35.0	89	32.1	0	2	135	0.00	29.936 
06:05	35.0	35.0	35.0	89	32.1	0	1	135	0.00	29.936 
06:10	35.0	35.0	35.0	89	32.1	0	1	135	0.00	29.936 
06:15	34.9	34.9	34.9	89	32.0	0	2	135	0.00	29.934 
06:20	34.9	34.9	34.9	89	32.0	0	2	135	0.00	29.934 
06:25	34.9	34.9	34.9	90	32.3	0	2	135	0.00	29.934 
06:30	34.9	34.9	34.9	90	32.3	1	3	90	0.00	29.924 
06:35	34.9	34.9	34.9	90	32.3	1	2	90	0.00	29.924 
06:40	35.0	35.0	35.0	90	32.4	1	2	90	0.00	29.924 
06:45	35.0	35.0	35.0	90	32.4	1	4	90	0.00	29.920 
06:50	35.0	35.0	35.0	90	32.4	1	3	90	0.00	29.920 
06:55	35.0	35.0	35.0	90	32.4	2	4	90	0.00	29.920 
07:00	35.0	35.0	35.0	91	32.6	2	4	90	0.00	29.905 
07:05	35.0	35.0	35.0	91	32.6	2	5	112	0.00	29.905 
07:10	35.0	35.0	35.0	91	32.6	1	4	90	0.00	29.905 
07:15	35.2	35.2	35.2	91	32.8	1	4	112	0.00	29.891 
07:20	35.2	35.2	35.2	91	32.8	1	3	112	0.00	29.891 
07:25	35.2	35.2	35.2	92	33.1	0	2	135	0.00	29.891 
07:30	35.2	35.2	35.2	92	33.1	1	4	135	0.00	29.891 
07:35	35.2	35.2	35.2	92	33.1	0	1	90	0.00	29.891 
07:40	35.3	35.3	35.3	92	33.2	1	2	90	0.00	29.891 
07:45	35.3	35.3	35.3	92	33.2	0	3	90	0.00	29.887 
07:50	35.3	35.3	35.3	92	33.2	1	3	112	0.00	29.887 
07:55	35.5	35.5	35.5	93	33.7	0	2	112	0.00	29.887 
08:00	35.5	35.5	35.5	93	33.7	0	3	112	0.00	29.879 
08:05	35.6	35.6	35.6	93	33.8	1	4	112	0.00	29.879 
08:10	35.6	35.6	35.6	93	33.8	1	3	112	0.00	29.879 
08:15	35.8	35.8	35.8	93	34.0	0	2	158	0.00	29.877 
08:20	35.9	35.9	35.9	94	34.3	0	2	90	0.00	29.877 
08:25	35.9	35.9	35.9	94	34.3	1	3	90	0.00	29.877 
08:30	36.2	36.2	36.2	94	34.6	0	2	90	0.00	29.863 
08:35	36.3	36.3	36.3	94	34.7	1	3	135	0.00	29.863 
08:40	36.5	36.5	36.5	94	34.9	0	2	135	0.00	29.863 
08:45	36.5	36.5	36.5	94	34.9	0	3	135	0.00	29.861 
08:50	36.3	36.3	36.3	94	34.7	1	2	135	0.00	29.861 
08:55	36.5	36.5	36.5	94	34.9	0	3	135	0.00	29.861 
09:00	36.5	36.5	36.5	94	34.9	0	3	135	0.00	29.865 
09:05	36.6	36.6	36.6	94	35.0	0	2	135	0.00	29.865 
09:10	36.8	36.8	36.8	94	35.2	0	1	135	0.00	29.865 
09:15	36.9	36.9	36.9	94	35.3	0	1	135	0.00	29.861 
09:20	37.0	37.0	37.0	94	35.4	0	2	135	0.00	29.861 
09:25	37.2	37.2	37.2	94	35.6	0	1	135	0.00	29.861 
09:30	37.5	37.5	37.5	94	35.9	0	2	135	0.00	29.855 
09:35	37.8	37.8	37.8	95	36.5	0	2	135	0.00	29.855 
09:40	38.3	38.3	38.3	95	37.0	0	3	135	0.00	29.855 
09:45	38.9	38.9	38.9	95	37.6	1	2	68	0.00	29.854 
09:50	39.3	39.3	39.3	95	38.0	0	2	68	0.00	29.854 
09:55	39.6	39.6	39.6	94	38.0	0	2	68	0.00	29.854 
10:00	39.8	39.8	39.8	94	38.2	0	2	68	0.00	29.853 
10:05	40.1	40.1	40.1	94	38.5	0	2	90	0.00	29.853 
10:10	40.2	40.2	40.2	94	38.6	0	2	90	0.00	29.853 
10:15	40.3	40.3	40.3	94	38.7	0	1	90	0.00	29.856 
10:20	40.5	40.5	40.5	94	38.9	0	2	90	0.00	29.856 
10:25	40.5	40.5	40.5	93	38.6	0	1	90	0.00	29.856 
10:30	40.6	40.6	40.6	93	38.7	0	2	90	0.00	29.853 
10:35	40.6	40.6	40.6	93	38.7	0	1	90	0.00	29.853 
10:40	40.8	40.8	40.8	93	38.9	0	2	90	0.00	29.853 
10:45	40.9	40.9	40.9	93	39.0	0	2	90	0.00	29.842 
10:50	41.1	41.1	41.1	93	39.2	0	2	90	0.00	29.842 
10:55	41.2	41.2	41.2	93	39.3	1	4	90	0.00	29.842 
11:00	41.5	41.5	41.5	93	39.6	1	3	270	0.00	29.836 
11:05	41.6	41.6	41.6	93	39.7	1	3	68	0.00	29.836 
11:10	41.8	41.8	41.8	93	39.9	1	3	248	0.00	29.836 
11:15	42.1	42.1	42.1	93	40.2	1	5	225	0.00	29.825 
11:20	42.3	42.3	42.3	93	40.4	1	4	225	0.00	29.825 
11:25	42.5	42.5	42.5	93	40.6	0	3	225	0.00	29.825 
11:30	42.6	42.6	42.6	92	40.4	1	5	248	0.00	29.821 
11:35	42.9	42.9	42.9	92	40.7	1	3	248	0.00	29.821 
11:40	43.1	43.1	43.1	92	40.9	1	3	248	0.00	29.821 
11:45	43.3	43.3	43.3	92	41.1	1	5	248	0.00	29.803 
11:50	43.6	43.6	43.6	92	41.4	1	6	248	0.00	29.803 
11:55	43.9	43.9	43.9	92	41.7	1	5	270	0.00	29.803 
12:00	44.2	44.2	44.2	91	41.7	2	6	248	0.00	29.789 
12:05	44.5	44.5	44.5	91	42.0	1	4	248	0.00	29.789 
12:10	44.6	44.6	44.6	91	42.1	2	6	270	0.00	29.789 
12:15	44.9	44.9	44.9	90	42.1	2	6	248	0.00	29.775 
12:20	45.2	45.2	45.2	90	42.4	3	9	248	0.00	29.775 
12:25	45.4	45.4	45.4	89	42.3	2	6	248	0.00	29.775 
12:30	45.7	45.7	45.7	89	42.6	2	7	248	0.00	29.769 
12:35	46.0	46.0	46.0	88	42.6	2	8	225	0.00	29.769 
12:40	46.1	46.1	46.1	88	42.7	3	7	225	0.00	29.769 
12:45	46.4	46.4	46.4	87	42.7	3	10	248	0.00	29.755 
12:50	46.8	46.8	46.8	87	43.1	2	6	248	0.00	29.755 
12:55	47.0	47.0	47.0	86	43.0	2	6	248	0.00	29.755 
13:00	47.1	47.1	47.1	86	43.1	2	7	248	0.00	29.750 
13:05	47.1	47.1	47.1	85	42.8	3	9	248	0.00	29.750 
13:10	47.3	47.3	47.3	85	43.0	2	7	248	0.00	29.750 
13:15	47.4	47.4	47.4	85	43.1	3	6	270	0.00	29.742 
13:20	47.7	47.7	47.7	85	43.4	3	7	225	0.00	29.742 
13:25	47.7	47.7	47.7	85	43.4	2	9	248	0.00	29.742 
13:30	47.9	47.9	47.9	85	43.6	2	8	248	0.00	29.739 
13:35	48.0	48.0	48.0	84	43.4	2	6	270	0.00	29.739 
13:40	48.3	48.3	48.3	84	43.7	2	7	225	0.00	29.739 
13:45	48.6	48.6	48.6	84	44.0	3	9	248	0.00	29.743 
13:50	48.9	48.9	48.9	84	44.3	3	10	248	0.00	29.743 
13:55	49.2	49.2	49.2	83	44.3	1	6	248	0.00	29.743 
14:00	49.4	49.4	49.4	83	44.5	3	11	248	0.00	29.740 
14:05	49.2	49.2	49.2	82	43.9	2	4	248	0.00	29.740 
14:10	49.2	49.2	49.2	82	43.9	2	5	248	0.00	29.740 
14:15	49.1	49.1	49.1	83	44.2	1	4	248	0.00	29.748 
14:20	49.1	49.1	49.1	83	44.2	2	4	248	0.00	29.748 
14:25	49.1	49.1	49.1	83	44.2	2	6	248	0.00	29.748 
14:30	48.9	48.9	48.9	83	44.0	1	5	270	0.00	29.752 
14:35	48.9	48.9	48.9	84	44.3	1	4	248	0.00	29.752 
14:40	48.9	48.9	48.9	84	44.3	1	3	248	0.00	29.752 
14:45	48.8	48.8	48.8	84	44.2	1	3	248	0.00	29.751 
14:50	48.8	48.8	48.8	84	44.2	1	4	248	0.00	29.751 
14:55	48.8	48.8	48.8	84	44.2	1	5	248	0.00	29.751 
15:00	48.9	48.9	48.9	84	44.3	2	5	248	0.00	29.754 
15:05	48.9	48.9	48.9	84	44.3	1	5	248	0.00	29.754 
15:10	49.1	49.1	49.1	84	44.5	2	8	248	0.00	29.754 
15:15	49.4	49.4	49.4	83	44.5	3	7	248	0.00	29.753 
15:20	49.4	49.4	49.4	82	44.1	2	7	248	0.00	29.753 
15:25	49.5	49.5	49.5	82	44.2	3	6	248	0.00	29.753 
15:30	49.5	49.5	49.5	78	42.9	2	7	248	0.00	29.755 
15:35	49.6	49.6	49.6	81	44.0	3	11	225	0.00	29.755 
15:40	49.8	49.8	49.8	80	43.9	3	7	248	0.00	29.755 
15:45	49.8	49.8	49.8	80	43.9	3	9	248	0.00	29.759 
15:50	49.8	49.8	49.8	80	43.9	3	10	248	0.00	29.759 
15:55	49.8	49.8	49.8	79	43.6	3	9	248	0.00	29.759 
16:00	49.8	48.6	49.8	79	43.6	4	10	270	0.00	29.761 
16:05	49.6	49.6	49.6	79	43.4	3	9	248	0.00	29.761 
16:10	49.6	48.4	49.6	79	43.4	4	10	248	0.00	29.761 
16:15	49.6	49.6	49.6	79	43.4	3	7	270	0.00	29.765 
16:20	49.5	49.5	49.5	79	43.3	3	9	248	0.00	29.765 
16:25	49.4	49.4	49.4	79	43.2	3	7	248	0.00	29.765 
16:30	49.2	49.2	49.2	80	43.3	2	4	248	0.00	29.769 
16:35	49.2	49.2	49.2	79	43.0	3	10	248	0.00	29.769 
16:40	49.1	49.1	49.1	79	42.9	3	8	270	0.00	29.769 
16:45	48.9	48.9	48.9	79	42.7	3	6	248	0.00	29.775 
16:50	48.8	48.8	48.8	80	42.9	2	7	270	0.00	29.775 
16:55	48.6	48.6	48.6	80	42.7	3	9	270	0.00	29.775 
17:00	48.5	48.5	48.5	80	42.6	2	7	270	0.00	29.781 
17:05	48.3	48.3	48.3	81	42.7	3	10	270	0.00	29.781 
17:10	48.0	48.0	48.0	81	42.5	3	7	270	0.00	29.781 
17:15	47.9	47.9	47.9	81	42.4	3	9	248	0.00	29.787 
17:20	47.7	47.7	47.7	81	42.2	2	5	270	0.00	29.787 
17:25	47.7	47.7	47.7	82	42.5	3	7	270	0.00	29.787 
17:30	47.6	47.6	47.6	82	42.4	3	11	270	0.00	29.799 
17:35	47.4	47.4	47.4	83	42.5	3	9	248	0.00	29.799 
17:40	47.3	47.3	47.3	83	42.4	2	4	248	0.00	29.799 
17:45	47.0	47.0	47.0	84	42.4	3	6	248	0.00	29.806 
17:50	46.7	46.7	46.7	85	42.4	2	10	270	0.00	29.806 
17:55	46.4	46.4	46.4	86	42.4	2	4	248	0.00	29.806 
18:00	46.2	46.2	46.2	87	42.5	1	3	248	0.00	29.816 
18:05	46.1	46.1	46.1	88	42.7	1	4	248	0.00	29.816 
18:10	46.0	46.0	46.0	88	42.6	2	7	248	0.00	29.816 
18:15	45.8	45.8	45.8	88	42.5	2	5	270	0.00	29.819 
18:20	45.8	45.8	45.8	88	42.5	3	9	270	0.00	29.819 
18:25	45.8	45.8	45.8	88	42.5	3	9	248	0.00	29.819 
18:30	45.7	45.7	45.7	88	42.4	2	4	270	0.00	29.826 
18:35	45.7	45.7	45.7	88	42.4	1	4	270	0.00	29.826 
18:40	45.7	45.7	45.7	88	42.4	2	3	270	0.00	29.826 
18:45	45.5	45.5	45.5	88	42.2	1	3	270	0.00	29.832 
18:50	45.5	45.5	45.5	88	42.2	1	3	270	0.00	29.832 
18:55	45.4	45.4	45.4	88	42.1	1	4	270	0.00	29.832 
19:00	45.2	45.2	45.2	89	42.2	1	4	248	0.00	29.833 
19:05	45.1	45.1	45.1	89	42.1	1	3	248	0.00	29.833 
19:10	44.9	44.9	44.9	89	41.9	2	6	270	0.00	29.833 
19:15	44.9	44.9	44.9	89	41.9	2	4	248	0.00	29.836 
19:20	44.8	44.8	44.8	89	41.8	2	5	248	0.00	29.836 
19:25	44.8	44.8	44.8	89	41.8	2	5	248	0.00	29.836 
19:30	44.6	44.6	44.6	89	41.6	1	3	248	0.00	29.841 
19:35	44.5	44.5	44.5	90	41.8	1	3	248	0.00	29.841 
19:40	44.3	44.3	44.3	90	41.6	2	6	270	0.00	29.841 
19:45	44.3	44.3	44.3	90	41.6	2	4	270	0.00	29.849 
19:50	44.2	44.2	44.2	89	41.2	2	5	248	0.00	29.849 
19:55	44.1	44.1	44.1	89	41.1	2	4	248	0.00	29.849 
20:00	44.1	44.1	44.1	89	41.1	2	7	248	0.00	29.856 
20:05	43.6	43.6	43.6	88	40.3	2	7	292	0.00	29.856 
20:10	43.1	43.1	43.1	88	39.8	3	6	270	0.00	29.856 
20:15	42.9	42.9	42.9	88	39.6	3	7	248	0.00	29.868 
20:20	42.6	42.6	42.6	88	39.3	2	6	270	0.00	29.868 
20:25	42.5	42.5	42.5	88	39.2	3	5	270	0.00	29.868 
20:30	42.3	42.3	42.3	88	39.0	3	6	270	0.00	29.882 
20:35	42.2	42.2	42.2	88	38.9	3	6	248	0.00	29.882 
20:40	42.1	42.1	42.1	88	38.8	2	5	292	0.00	29.882 
20:45	41.9	41.9	41.9	88	38.6	3	6	270	0.00	29.893 
20:50	41.9	41.9	41.9	88	38.6	3	6	270	0.00	29.893 
20:55	41.8	41.8	41.8	88	38.5	3	5	270	0.00	29.893 
21:00	41.6	41.6	41.6	89	38.6	2	5	270	0.00	29.899 
21:05	41.5	41.5	41.5	89	38.5	2	6	270	0.00	29.899 
21:10	41.3	41.3	41.3	88	38.0	3	5	270	0.00	29.899 
21:15	41.3	41.3	41.3	88	38.0	2	5	270	0.00	29.901 
21:20	41.2	41.2	41.2	88	37.9	2	6	270	0.00	29.901 
21:25	41.1	41.1	41.1	88	37.8	2	6	270	0.00	29.901 
21:30	40.9	40.9	40.9	88	37.6	2	7	270	0.00	29.912 
21:35	40.8	40.8	40.8	88	37.5	2	5	270	0.00	29.912 
21:40	40.6	40.6	40.6	88	37.3	2	5	315	0.00	29.912 
21:45	40.3	40.3	40.3	88	37.0	2	4	248	0.00	29.918 
21:50	40.2	40.2	40.2	88	36.9	2	5	270	0.00	29.918 
21:55	40.1	40.1	40.1	88	36.8	2	5	248	0.00	29.918 
22:00	39.9	39.9	39.9	88	36.6	2	5	270	0.00	29.929 
22:05	39.8	39.8	39.8	88	36.5	1	4	270	0.00	29.929 
22:10	39.8	39.8	39.8	88	36.5	1	6	292	0.00	29.929 
22:15	39.8	39.8	39.8	88	36.5	1	4	248	0.00	29.933 
22:20	39.6	39.6	39.6	88	36.3	2	4	248	0.00	29.933 
22:25	39.6	39.6	39.6	88	36.3	2	4	292	0.00	29.933 
22:30	39.5	39.5	39.5	88	36.2	1	3	292	0.00	29.942 
22:35	39.5	39.5	39.5	88	36.2	1	3	248	0.00	29.942 
22:40	39.3	39.3	39.3	88	36.0	1	3	248	0.00	29.942 
22:45	39.3	39.3	39.3	88	36.0	2	7	248	0.00	29.952 
22:50	39.2	39.2	39.2	88	35.9	2	3	270	0.00	29.952 
22:55	39.2	39.2	39.2	88	35.9	1	4	270	0.00	29.952 
23:00	39.1	39.1	39.1	88	35.9	2	5	270	0.00	29.960 
23:05	39.1	39.1	39.1	88	35.9	2	4	248	0.00	29.960 
23:10	39.1	39.1	39.1	88	35.9	2	5	248	0.00	29.960 
23:15	39.1	39.1	39.1	88	35.9	2	5	248	0.00	29.967 
23:20	39.1	39.1	39.1	88	35.9	2	4	270	0.00	29.967 
23:25	38.9	38.9	38.9	87	35.4	2	4	292	0.00	29.967 
23:30	38.9	38.9	38.9	87	35.4	2	6	270	0.00	29.970 
23:35	38.9	38.9	38.9	87	35.4	3	6	270	0.00	29.970 
23:40	38.8	38.8	38.8	87	35.3	2	6	270	0.00	29.970 
23:45	38.8	38.8	38.8	87	35.3	2	5	270	0.00	29.974 
23:50	38.6	38.6	38.6	87	35.1	2	5	270	0.00	29.974 
23:55	38.5	38.5	38.5	87	35.0	2	5	225	0.00	29.974 

CoCoRaHS
IN-AL-39
A2 Web Hosting
Creative Commons License
GoDaddy
search engine by freefind advanced

loaded 2018-11-17 23:26:01 • last modified 2010-11-18 10:43:29
Privacy PolicyDisclaimer
• wx.awcolley.com is powered by PmWiki v.2002016 •
• all content (unless otherwise noted) © 2018 A W Colley